AUA22D EBBR-LOWW
Flight info
| Callsign | AUA22D |
|---|---|
| Flight time | 1h 16m |
| Altitude | 35000 |
| Route | SOPOK Y863 ROPUV L607 EMGOD DCT BOMBI DCT BARSU DCT EKSOS DCT LULAR DCT RUDAP DCT BUDEX BUDEX2W |
| Aircraft | A320/M-SDE3FGHIRWY/LB1 |
Departure
| Time | 2026-05-05 07:47 |
|---|---|
| Airport | Brussels Airport (EBBR) |
Arrival
| Time | 2026-05-05 09:03 |
|---|---|
| Airport | Vienna International Airport (LOWW) |
| Time | Latitude | Longitude | Altitude | Speed | Heading |
|---|---|---|---|---|---|
| 2026-05-05 07:22 | 50.90188 | 4.48589 | 139 ft | 6 kts | 289° |
| 2026-05-05 07:22 | 50.90211 | 4.48550 | 138 ft | 7 kts | 352° |
| 2026-05-05 07:22 | 50.90249 | 4.48529 | 137 ft | 7 kts | 336° |
| 2026-05-05 07:23 | 50.90261 | 4.48521 | 137 ft | 0 kts | 336° |
| 2026-05-05 07:39 | 50.90246 | 4.48531 | 137 ft | 4 kts | 336° |
| 2026-05-05 07:39 | 50.90221 | 4.48549 | 137 ft | 4 kts | 338° |
| 2026-05-05 07:40 | 50.90196 | 4.48560 | 138 ft | 4 kts | 4° |
| 2026-05-05 07:40 | 50.90180 | 4.48550 | 138 ft | 1 kts | 65° |
| 2026-05-05 07:40 | 50.90179 | 4.48549 | 138 ft | 0 kts | 65° |
| 2026-05-05 07:42 | 50.90181 | 4.48553 | 138 ft | 2 kts | 65° |
| 2026-05-05 07:42 | 50.90192 | 4.48593 | 139 ft | 5 kts | 65° |
| 2026-05-05 07:42 | 50.90211 | 4.48657 | 139 ft | 7 kts | 65° |
| 2026-05-05 07:43 | 50.90236 | 4.48743 | 138 ft | 10 kts | 65° |
| 2026-05-05 07:43 | 50.90266 | 4.48848 | 138 ft | 11 kts | 65° |
| 2026-05-05 07:43 | 50.90300 | 4.48967 | 138 ft | 13 kts | 65° |
| 2026-05-05 07:43 | 50.90339 | 4.49104 | 137 ft | 15 kts | 65° |
| 2026-05-05 07:44 | 50.90387 | 4.49265 | 136 ft | 17 kts | 65° |
| 2026-05-05 07:44 | 50.90443 | 4.49451 | 133 ft | 20 kts | 65° |
| 2026-05-05 07:44 | 50.90502 | 4.49609 | 136 ft | 14 kts | 34° |
| 2026-05-05 07:44 | 50.90607 | 4.49653 | 133 ft | 17 kts | 13° |
| 2026-05-05 07:45 | 50.90726 | 4.49699 | 133 ft | 18 kts | 14° |
| 2026-05-05 07:45 | 50.90854 | 4.49750 | 128 ft | 21 kts | 14° |
| 2026-05-05 07:45 | 50.90963 | 4.49837 | 123 ft | 16 kts | 39° |
| 2026-05-05 07:45 | 50.91066 | 4.49939 | 121 ft | 19 kts | 24° |
| 2026-05-05 07:46 | 50.91129 | 4.49922 | 123 ft | 7 kts | 306° |
| 2026-05-05 07:46 | 50.91131 | 4.49857 | 124 ft | 7 kts | 250° |
| 2026-05-05 07:46 | 50.91077 | 4.49670 | 127 ft | 47 kts | 246° |
| 2026-05-05 07:46 | 50.90839 | 4.48846 | 133 ft | 114 kts | 245° |
| 2026-05-05 07:47 | 50.90434 | 4.47439 | 138 ft | 165 kts | 245° |
| 2026-05-05 07:47 | 50.89936 | 4.45749 | 617 ft | 169 kts | 249° |
| 2026-05-05 07:47 | 50.89446 | 4.44079 | 1273 ft | 167 kts | 248° |
| 2026-05-05 07:47 | 50.88960 | 4.42385 | 1838 ft | 171 kts | 244° |
| 2026-05-05 07:48 | 50.88083 | 4.41039 | 2122 ft | 189 kts | 198° |
| 2026-05-05 07:48 | 50.86741 | 4.40999 | 2367 ft | 204 kts | 156° |
| 2026-05-05 07:48 | 50.85610 | 4.42398 | 2651 ft | 216 kts | 124° |
| 2026-05-05 07:48 | 50.84645 | 4.44356 | 3009 ft | 238 kts | 124° |
| 2026-05-05 07:49 | 50.83600 | 4.46537 | 3511 ft | 257 kts | 124° |
| 2026-05-05 07:49 | 50.82506 | 4.48809 | 4337 ft | 262 kts | 125° |
| 2026-05-05 07:49 | 50.81387 | 4.51106 | 5223 ft | 265 kts | 124° |
| 2026-05-05 07:49 | 50.80247 | 4.53434 | 6045 ft | 270 kts | 124° |
| 2026-05-05 07:50 | 50.79085 | 4.55799 | 6804 ft | 275 kts | 125° |
| 2026-05-05 07:50 | 50.77900 | 4.58201 | 7597 ft | 278 kts | 125° |
| 2026-05-05 07:50 | 50.76705 | 4.60625 | 8442 ft | 281 kts | 126° |
| 2026-05-05 07:50 | 50.75496 | 4.63075 | 9227 ft | 284 kts | 126° |
| 2026-05-05 07:51 | 50.74253 | 4.65528 | 10016 ft | 288 kts | 128° |
| 2026-05-05 07:51 | 50.72914 | 4.67993 | 10410 ft | 306 kts | 129° |
| 2026-05-05 07:51 | 50.71454 | 4.70605 | 10623 ft | 329 kts | 129° |
| 2026-05-05 07:51 | 50.69989 | 4.73456 | 11105 ft | 338 kts | 121° |
| 2026-05-05 07:52 | 50.68881 | 4.76725 | 11754 ft | 340 kts | 110° |
| 2026-05-05 07:52 | 50.68137 | 4.80283 | 12451 ft | 343 kts | 105° |
| 2026-05-05 07:52 | 50.67433 | 4.83900 | 13132 ft | 348 kts | 105° |
| 2026-05-05 07:52 | 50.66707 | 4.87561 | 13814 ft | 351 kts | 107° |
| 2026-05-05 07:53 | 50.65884 | 4.91201 | 14454 ft | 354 kts | 109° |
| 2026-05-05 07:53 | 50.64985 | 4.94831 | 15064 ft | 357 kts | 111° |
| 2026-05-05 07:53 | 50.64048 | 4.98473 | 15649 ft | 361 kts | 111° |
| 2026-05-05 07:53 | 50.63103 | 5.02104 | 16289 ft | 363 kts | 112° |
| 2026-05-05 07:54 | 50.62163 | 5.05735 | 16947 ft | 363 kts | 112° |
| 2026-05-05 07:54 | 50.61213 | 5.09445 | 17522 ft | 367 kts | 112° |
| 2026-05-05 07:54 | 50.60263 | 5.13196 | 18089 ft | 371 kts | 112° |
| 2026-05-05 07:54 | 50.59306 | 5.16993 | 18580 ft | 375 kts | 112° |
| 2026-05-05 07:55 | 50.58341 | 5.20829 | 19134 ft | 378 kts | 112° |
| 2026-05-05 07:55 | 50.57369 | 5.24697 | 19679 ft | 382 kts | 112° |
| 2026-05-05 07:55 | 50.56384 | 5.28607 | 20201 ft | 387 kts | 112° |
| 2026-05-05 07:55 | 50.55387 | 5.32552 | 20736 ft | 390 kts | 112° |
| 2026-05-05 07:56 | 50.54378 | 5.36527 | 21298 ft | 393 kts | 112° |
| 2026-05-05 07:56 | 50.53358 | 5.40531 | 21810 ft | 396 kts | 113° |
| 2026-05-05 07:56 | 50.52329 | 5.44566 | 22282 ft | 400 kts | 112° |
| 2026-05-05 07:56 | 50.51290 | 5.48632 | 22771 ft | 402 kts | 113° |
| 2026-05-05 07:57 | 50.50243 | 5.52721 | 23276 ft | 404 kts | 113° |
| 2026-05-05 07:57 | 50.49188 | 5.56828 | 23686 ft | 407 kts | 113° |
| 2026-05-05 07:57 | 50.48125 | 5.60964 | 24054 ft | 410 kts | 114° |
| 2026-05-05 07:57 | 50.47054 | 5.65128 | 24423 ft | 413 kts | 114° |
| 2026-05-05 07:58 | 50.45976 | 5.69314 | 24783 ft | 415 kts | 114° |
| 2026-05-05 07:58 | 50.44890 | 5.73526 | 25140 ft | 418 kts | 114° |
| 2026-05-05 07:58 | 50.43795 | 5.77764 | 25491 ft | 420 kts | 114° |
| 2026-05-05 07:58 | 50.42694 | 5.82020 | 25834 ft | 423 kts | 115° |
| 2026-05-05 07:59 | 50.41584 | 5.86303 | 26174 ft | 425 kts | 115° |
| 2026-05-05 07:59 | 50.40466 | 5.90604 | 26504 ft | 427 kts | 115° |
| 2026-05-05 07:59 | 50.39339 | 5.94927 | 26833 ft | 430 kts | 115° |
| 2026-05-05 07:59 | 50.38204 | 5.99275 | 27144 ft | 432 kts | 115° |
| 2026-05-05 08:00 | 50.37061 | 6.03647 | 27439 ft | 435 kts | 115° |
| 2026-05-05 08:00 | 50.35906 | 6.08043 | 27737 ft | 438 kts | 115° |
| 2026-05-05 08:00 | 50.34742 | 6.12460 | 28033 ft | 440 kts | 115° |
| 2026-05-05 08:00 | 50.33573 | 6.16903 | 28338 ft | 443 kts | 115° |
| 2026-05-05 08:01 | 50.32397 | 6.21368 | 28636 ft | 445 kts | 116° |
| 2026-05-05 08:01 | 50.31211 | 6.25855 | 28920 ft | 447 kts | 116° |
| 2026-05-05 08:01 | 50.30019 | 6.30363 | 29188 ft | 449 kts | 116° |
| 2026-05-05 08:01 | 50.28837 | 6.34829 | 29456 ft | 452 kts | 116° |
| 2026-05-05 08:02 | 50.27614 | 6.39437 | 29719 ft | 454 kts | 116° |
| 2026-05-05 08:02 | 50.26403 | 6.43993 | 29964 ft | 455 kts | 116° |
| 2026-05-05 08:02 | 50.25181 | 6.48578 | 30139 ft | 458 kts | 116° |
| 2026-05-05 08:02 | 50.23951 | 6.53178 | 30338 ft | 460 kts | 116° |
| 2026-05-05 08:03 | 50.22729 | 6.57803 | 30514 ft | 463 kts | 114° |
| 2026-05-05 08:03 | 50.21829 | 6.62595 | 30695 ft | 469 kts | 105° |
| 2026-05-05 08:03 | 50.21405 | 6.67654 | 30953 ft | 473 kts | 96° |
| 2026-05-05 08:03 | 50.21488 | 6.72801 | 31214 ft | 477 kts | 87° |
| 2026-05-05 08:04 | 50.21812 | 6.77949 | 31472 ft | 477 kts | 88° |
| 2026-05-05 08:04 | 50.22106 | 6.83106 | 31729 ft | 476 kts | 91° |
| 2026-05-05 08:04 | 50.22049 | 6.88243 | 31976 ft | 472 kts | 99° |
| 2026-05-05 08:04 | 50.21762 | 6.93343 | 32172 ft | 473 kts | 99° |
| 2026-05-05 08:05 | 50.21480 | 6.98471 | 32402 ft | 475 kts | 98° |
| 2026-05-05 08:05 | 50.21206 | 7.03609 | 32693 ft | 475 kts | 98° |
| 2026-05-05 08:05 | 50.20938 | 7.08746 | 32987 ft | 475 kts | 99° |
| 2026-05-05 08:05 | 50.20671 | 7.13887 | 33253 ft | 475 kts | 99° |
| 2026-05-05 08:06 | 50.20399 | 7.19023 | 33507 ft | 475 kts | 99° |
| 2026-05-05 08:06 | 50.20124 | 7.24157 | 33761 ft | 475 kts | 99° |
| 2026-05-05 08:06 | 50.19844 | 7.29292 | 34014 ft | 475 kts | 99° |
| 2026-05-05 08:06 | 50.19548 | 7.34415 | 34247 ft | 474 kts | 100° |
| 2026-05-05 08:07 | 50.19174 | 7.39514 | 34474 ft | 472 kts | 102° |
| 2026-05-05 08:07 | 50.18729 | 7.44578 | 34710 ft | 471 kts | 103° |
| 2026-05-05 08:07 | 50.18242 | 7.49623 | 34854 ft | 470 kts | 103° |
| 2026-05-05 08:07 | 50.17744 | 7.54646 | 34889 ft | 468 kts | 103° |
| 2026-05-05 08:08 | 50.16774 | 7.64645 | 34884 ft | 464 kts | 103° |
| 2026-05-05 08:08 | 50.15863 | 7.74591 | 34884 ft | 463 kts | 103° |
| 2026-05-05 08:09 | 50.14965 | 7.84520 | 34887 ft | 463 kts | 103° |
| 2026-05-05 08:09 | 50.14049 | 7.94388 | 34896 ft | 463 kts | 103° |
| 2026-05-05 08:10 | 50.13110 | 8.04310 | 34900 ft | 463 kts | 103° |
| 2026-05-05 08:10 | 50.12162 | 8.14230 | 34904 ft | 463 kts | 103° |
| 2026-05-05 08:11 | 50.11211 | 8.24151 | 34911 ft | 463 kts | 103° |
| 2026-05-05 08:11 | 50.10251 | 8.34060 | 34887 ft | 463 kts | 103° |
| 2026-05-05 08:12 | 50.09277 | 8.43966 | 34879 ft | 463 kts | 103° |
| 2026-05-05 08:12 | 50.08460 | 8.52192 | 34880 ft | 463 kts | 103° |
| 2026-05-05 08:13 | 50.07478 | 8.62098 | 34881 ft | 463 kts | 103° |
| 2026-05-05 08:13 | 50.06486 | 8.71999 | 34883 ft | 463 kts | 104° |
| 2026-05-05 08:14 | 50.05486 | 8.81890 | 34882 ft | 463 kts | 103° |
| 2026-05-05 08:14 | 50.04650 | 8.91851 | 34880 ft | 464 kts | 101° |
| 2026-05-05 08:15 | 50.03929 | 9.01836 | 34879 ft | 465 kts | 101° |
| 2026-05-05 08:15 | 50.03174 | 9.11811 | 34880 ft | 464 kts | 102° |
| 2026-05-05 08:16 | 50.02363 | 9.21770 | 34869 ft | 464 kts | 102° |
| 2026-05-05 08:16 | 50.01529 | 9.31719 | 34873 ft | 464 kts | 102° |
| 2026-05-05 08:17 | 50.00702 | 9.41665 | 34872 ft | 464 kts | 102° |
| 2026-05-05 08:17 | 49.99875 | 9.51608 | 34875 ft | 464 kts | 102° |
| 2026-05-05 08:18 | 49.99029 | 9.61546 | 34863 ft | 464 kts | 102° |
| 2026-05-05 08:18 | 49.98171 | 9.71482 | 34865 ft | 464 kts | 102° |
| 2026-05-05 08:19 | 49.97316 | 9.81426 | 34868 ft | 464 kts | 102° |
| 2026-05-05 08:19 | 49.96450 | 9.91368 | 34874 ft | 464 kts | 102° |
| 2026-05-05 08:20 | 49.95585 | 10.01235 | 34875 ft | 465 kts | 102° |
| 2026-05-05 08:20 | 49.94698 | 10.11173 | 34867 ft | 465 kts | 102° |
| 2026-05-05 08:21 | 49.93794 | 10.21114 | 34870 ft | 465 kts | 102° |
| 2026-05-05 08:21 | 49.92884 | 10.31064 | 34876 ft | 466 kts | 102° |
| 2026-05-05 08:22 | 49.91642 | 10.40878 | 34870 ft | 460 kts | 113° |
| 2026-05-05 08:22 | 49.89317 | 10.50065 | 34856 ft | 457 kts | 116° |
| 2026-05-05 08:23 | 49.86941 | 10.59213 | 34857 ft | 458 kts | 116° |
| 2026-05-05 08:23 | 49.84563 | 10.68363 | 34865 ft | 458 kts | 116° |
| 2026-05-05 08:24 | 49.82183 | 10.77515 | 34865 ft | 458 kts | 116° |
| 2026-05-05 08:24 | 49.79793 | 10.86651 | 34864 ft | 458 kts | 116° |
| 2026-05-05 08:25 | 49.77388 | 10.95774 | 34847 ft | 458 kts | 117° |
| 2026-05-05 08:25 | 49.74980 | 11.04886 | 34860 ft | 458 kts | 117° |
| 2026-05-05 08:26 | 49.72570 | 11.13989 | 34859 ft | 458 kts | 117° |
| 2026-05-05 08:26 | 49.70149 | 11.23086 | 34860 ft | 457 kts | 117° |
| 2026-05-05 08:27 | 49.67726 | 11.32167 | 34867 ft | 457 kts | 117° |
| 2026-05-05 08:27 | 49.65298 | 11.41237 | 34851 ft | 457 kts | 116° |
| 2026-05-05 08:28 | 49.63200 | 11.50464 | 34852 ft | 460 kts | 111° |
| 2026-05-05 08:28 | 49.61367 | 11.59923 | 34848 ft | 461 kts | 110° |
| 2026-05-05 08:29 | 49.59510 | 11.69366 | 34839 ft | 460 kts | 111° |
| 2026-05-05 08:30 | 49.56558 | 11.83405 | 34840 ft | 458 kts | 112° |
| 2026-05-05 08:30 | 49.54563 | 11.92719 | 34848 ft | 458 kts | 112° |
| 2026-05-05 08:31 | 49.52577 | 12.02031 | 34853 ft | 457 kts | 112° |
| 2026-05-05 08:31 | 49.50598 | 12.11329 | 34857 ft | 457 kts | 112° |
| 2026-05-05 08:32 | 49.48613 | 12.20623 | 34845 ft | 457 kts | 112° |
| 2026-05-05 08:32 | 49.46605 | 12.29897 | 34845 ft | 457 kts | 112° |
| 2026-05-05 08:33 | 49.44595 | 12.39163 | 34846 ft | 457 kts | 112° |
| 2026-05-05 08:33 | 49.42606 | 12.48363 | 34846 ft | 457 kts | 112° |
| 2026-05-05 08:34 | 49.40593 | 12.57620 | 34846 ft | 457 kts | 112° |
| 2026-05-05 08:34 | 49.38569 | 12.66873 | 34833 ft | 457 kts | 111° |
| 2026-05-05 08:35 | 49.36526 | 12.76120 | 34840 ft | 458 kts | 112° |
| 2026-05-05 08:35 | 49.34369 | 12.85304 | 34842 ft | 457 kts | 114° |
| 2026-05-05 08:36 | 49.32098 | 12.94416 | 34838 ft | 457 kts | 114° |
| 2026-05-05 08:36 | 49.29828 | 13.03522 | 34840 ft | 458 kts | 114° |
| 2026-05-05 08:37 | 49.27578 | 13.12641 | 34843 ft | 458 kts | 114° |
| 2026-05-05 08:37 | 49.25326 | 13.21755 | 34843 ft | 458 kts | 114° |
| 2026-05-05 08:38 | 49.23039 | 13.30841 | 34846 ft | 457 kts | 115° |
| 2026-05-05 08:38 | 49.20624 | 13.39829 | 34841 ft | 457 kts | 115° |
| 2026-05-05 08:39 | 49.18177 | 13.48723 | 34836 ft | 457 kts | 116° |
| 2026-05-05 08:39 | 49.15728 | 13.57685 | 34838 ft | 457 kts | 115° |
| 2026-05-05 08:40 | 49.13287 | 13.66685 | 34819 ft | 460 kts | 115° |
| 2026-05-05 08:40 | 49.10827 | 13.75735 | 34820 ft | 463 kts | 115° |
| 2026-05-05 08:41 | 49.08353 | 13.84817 | 34813 ft | 464 kts | 115° |
| 2026-05-05 08:41 | 49.05867 | 13.93892 | 34514 ft | 468 kts | 115° |
| 2026-05-05 08:41 | 49.04620 | 13.98430 | 34239 ft | 461 kts | 115° |
| 2026-05-05 08:42 | 49.03384 | 14.02916 | 33998 ft | 458 kts | 115° |
| 2026-05-05 08:42 | 49.02146 | 14.07393 | 33743 ft | 458 kts | 116° |
| 2026-05-05 08:42 | 49.00908 | 14.11853 | 33469 ft | 457 kts | 115° |
| 2026-05-05 08:42 | 48.99665 | 14.16312 | 33192 ft | 458 kts | 115° |
| 2026-05-05 08:43 | 48.98417 | 14.20772 | 32672 ft | 457 kts | 115° |
| 2026-05-05 08:43 | 48.97178 | 14.25193 | 32091 ft | 451 kts | 115° |
| 2026-05-05 08:43 | 48.95956 | 14.29563 | 31510 ft | 447 kts | 114° |
| 2026-05-05 08:43 | 48.94580 | 14.33777 | 30938 ft | 442 kts | 123° |
| 2026-05-05 08:44 | 48.92837 | 14.37588 | 30377 ft | 437 kts | 129° |
| 2026-05-05 08:44 | 48.90993 | 14.41247 | 29820 ft | 434 kts | 128° |
| 2026-05-05 08:44 | 48.89164 | 14.44872 | 29236 ft | 430 kts | 128° |
| 2026-05-05 08:44 | 48.87378 | 14.48409 | 28720 ft | 425 kts | 129° |
| 2026-05-05 08:45 | 48.85584 | 14.51958 | 28183 ft | 421 kts | 129° |
| 2026-05-05 08:45 | 48.83809 | 14.55465 | 27658 ft | 417 kts | 129° |
| 2026-05-05 08:45 | 48.82047 | 14.58934 | 27146 ft | 413 kts | 129° |
| 2026-05-05 08:45 | 48.80296 | 14.62371 | 26652 ft | 409 kts | 129° |
| 2026-05-05 08:46 | 48.78563 | 14.65773 | 26157 ft | 406 kts | 129° |
| 2026-05-05 08:46 | 48.76843 | 14.69149 | 25697 ft | 403 kts | 129° |
| 2026-05-05 08:46 | 48.75130 | 14.72505 | 25212 ft | 406 kts | 129° |
| 2026-05-05 08:46 | 48.73365 | 14.75953 | 24729 ft | 418 kts | 129° |
| 2026-05-05 08:47 | 48.71580 | 14.79441 | 24236 ft | 419 kts | 129° |
| 2026-05-05 08:47 | 48.69797 | 14.82928 | 23744 ft | 418 kts | 129° |
| 2026-05-05 08:47 | 48.68023 | 14.86397 | 23222 ft | 415 kts | 129° |
| 2026-05-05 08:47 | 48.66246 | 14.89862 | 22714 ft | 420 kts | 129° |
| 2026-05-05 08:48 | 48.64451 | 14.93358 | 22210 ft | 421 kts | 129° |
| 2026-05-05 08:48 | 48.62661 | 14.96830 | 21700 ft | 417 kts | 129° |
| 2026-05-05 08:48 | 48.60882 | 15.00273 | 21197 ft | 414 kts | 129° |
| 2026-05-05 08:48 | 48.59301 | 15.03882 | 20682 ft | 412 kts | 118° |
| 2026-05-05 08:49 | 48.58248 | 15.07894 | 20179 ft | 411 kts | 107° |
| 2026-05-05 08:49 | 48.57539 | 15.12068 | 19655 ft | 409 kts | 105° |
| 2026-05-05 08:49 | 48.56842 | 15.16178 | 19142 ft | 406 kts | 105° |
| 2026-05-05 08:49 | 48.56135 | 15.20304 | 18626 ft | 404 kts | 106° |
| 2026-05-05 08:50 | 48.55428 | 15.24396 | 18114 ft | 402 kts | 106° |
| 2026-05-05 08:50 | 48.54720 | 15.28467 | 17563 ft | 399 kts | 106° |
| 2026-05-05 08:50 | 48.54015 | 15.32496 | 17061 ft | 395 kts | 107° |
| 2026-05-05 08:50 | 48.53322 | 15.36463 | 16736 ft | 387 kts | 107° |
| 2026-05-05 08:51 | 48.52648 | 15.40327 | 16529 ft | 376 kts | 107° |
| 2026-05-05 08:51 | 48.51854 | 15.44036 | 16118 ft | 368 kts | 116° |
| 2026-05-05 08:51 | 48.50659 | 15.47376 | 15454 ft | 358 kts | 123° |
| 2026-05-05 08:51 | 48.49382 | 15.50572 | 14760 ft | 351 kts | 124° |
| 2026-05-05 08:52 | 48.48134 | 15.53668 | 14343 ft | 344 kts | 124° |
| 2026-05-05 08:52 | 48.46894 | 15.56731 | 13914 ft | 342 kts | 124° |
| 2026-05-05 08:52 | 48.45659 | 15.59783 | 13472 ft | 340 kts | 124° |
| 2026-05-05 08:52 | 48.44452 | 15.62769 | 13028 ft | 337 kts | 124° |
| 2026-05-05 08:53 | 48.43243 | 15.65766 | 12599 ft | 333 kts | 124° |
| 2026-05-05 08:53 | 48.42047 | 15.68733 | 12170 ft | 330 kts | 124° |
| 2026-05-05 08:53 | 48.40860 | 15.71676 | 11738 ft | 327 kts | 125° |
| 2026-05-05 08:53 | 48.39685 | 15.74587 | 11318 ft | 324 kts | 125° |
| 2026-05-05 08:54 | 48.38519 | 15.77472 | 10877 ft | 322 kts | 125° |
| 2026-05-05 08:54 | 48.37357 | 15.80337 | 10449 ft | 320 kts | 125° |
| 2026-05-05 08:54 | 48.36203 | 15.83176 | 10108 ft | 315 kts | 125° |
| 2026-05-05 08:54 | 48.35084 | 15.85933 | 9991 ft | 303 kts | 125° |
| 2026-05-05 08:55 | 48.34007 | 15.88589 | 9855 ft | 292 kts | 125° |
| 2026-05-05 08:55 | 48.32957 | 15.91173 | 9532 ft | 291 kts | 125° |
| 2026-05-05 08:55 | 48.31895 | 15.93768 | 9153 ft | 289 kts | 125° |
| 2026-05-05 08:55 | 48.30848 | 15.96325 | 8774 ft | 287 kts | 125° |
| 2026-05-05 08:56 | 48.29914 | 15.98975 | 8392 ft | 287 kts | 119° |
| 2026-05-05 08:56 | 48.29054 | 16.01669 | 8006 ft | 285 kts | 119° |
| 2026-05-05 08:56 | 48.28197 | 16.04331 | 7496 ft | 282 kts | 119° |
| 2026-05-05 08:56 | 48.27312 | 16.06965 | 6750 ft | 282 kts | 122° |
| 2026-05-05 08:57 | 48.26397 | 16.09540 | 6274 ft | 274 kts | 121° |
| 2026-05-05 08:57 | 48.25576 | 16.12061 | 6091 ft | 264 kts | 120° |
| 2026-05-05 08:57 | 48.24804 | 16.14495 | 5964 ft | 253 kts | 120° |
| 2026-05-05 08:57 | 48.24061 | 16.16821 | 5844 ft | 243 kts | 121° |
| 2026-05-05 08:58 | 48.23336 | 16.19082 | 5575 ft | 240 kts | 121° |
| 2026-05-05 08:58 | 48.22607 | 16.21349 | 5264 ft | 242 kts | 120° |
| 2026-05-05 08:58 | 48.21877 | 16.23623 | 4958 ft | 242 kts | 119° |
| 2026-05-05 08:58 | 48.21148 | 16.25895 | 4633 ft | 242 kts | 119° |
| 2026-05-05 08:59 | 48.20419 | 16.28159 | 4303 ft | 240 kts | 120° |
| 2026-05-05 08:59 | 48.19705 | 16.30383 | 3977 ft | 232 kts | 118° |
| 2026-05-05 08:59 | 48.19016 | 16.32521 | 3676 ft | 224 kts | 119° |
| 2026-05-05 08:59 | 48.18351 | 16.34584 | 3385 ft | 216 kts | 119° |
| 2026-05-05 09:00 | 48.17716 | 16.36554 | 3131 ft | 204 kts | 119° |
| 2026-05-05 09:00 | 48.17127 | 16.38380 | 2834 ft | 189 kts | 120° |
| 2026-05-05 09:00 | 48.16584 | 16.40063 | 2585 ft | 172 kts | 120° |
| 2026-05-05 09:00 | 48.16084 | 16.41608 | 2369 ft | 159 kts | 120° |
| 2026-05-05 09:01 | 48.15621 | 16.43039 | 2180 ft | 146 kts | 120° |
| 2026-05-05 09:01 | 48.15192 | 16.44363 | 1959 ft | 137 kts | 124° |
| 2026-05-05 09:01 | 48.14780 | 16.45632 | 1780 ft | 135 kts | 122° |
| 2026-05-05 09:01 | 48.14373 | 16.46888 | 1590 ft | 134 kts | 121° |
| 2026-05-05 09:02 | 48.13967 | 16.48139 | 1413 ft | 133 kts | 120° |
| 2026-05-05 09:02 | 48.13561 | 16.49388 | 1231 ft | 134 kts | 120° |
| 2026-05-05 09:02 | 48.13151 | 16.50649 | 1045 ft | 133 kts | 120° |
| 2026-05-05 09:02 | 48.12752 | 16.51893 | 850 ft | 134 kts | 117° |
| 2026-05-05 09:03 | 48.12343 | 16.53153 | 682 ft | 134 kts | 119° |
| 2026-05-05 09:03 | 48.11954 | 16.54343 | 616 ft | 113 kts | 116° |
| 2026-05-05 09:03 | 48.11686 | 16.55165 | 621 ft | 63 kts | 116° |
| 2026-05-05 09:03 | 48.11546 | 16.55586 | 619 ft | 38 kts | 115° |
| 2026-05-05 09:04 | 48.11500 | 16.55902 | 617 ft | 26 kts | 91° |
| 2026-05-05 09:04 | 48.11508 | 16.56074 | 610 ft | 19 kts | 79° |
| 2026-05-05 09:04 | 48.11592 | 16.56177 | 610 ft | 14 kts | 26° |
| 2026-05-05 09:04 | 48.11671 | 16.56255 | 618 ft | 13 kts | 31° |
| 2026-05-05 09:05 | 48.11757 | 16.56329 | 617 ft | 9 kts | 56° |
| 2026-05-05 09:05 | 48.11751 | 16.56388 | 610 ft | 9 kts | 116° |
| 2026-05-05 09:05 | 48.11721 | 16.56483 | 622 ft | 11 kts | 116° |
| 2026-05-05 09:05 | 48.11684 | 16.56597 | 614 ft | 13 kts | 116° |
| 2026-05-05 09:06 | 48.11642 | 16.56724 | 617 ft | 14 kts | 116° |
| 2026-05-05 09:06 | 48.11597 | 16.56866 | 618 ft | 16 kts | 116° |
| 2026-05-05 09:06 | 48.11547 | 16.57018 | 613 ft | 13 kts | 116° |
| 2026-05-05 09:06 | 48.11510 | 16.57132 | 616 ft | 12 kts | 116° |
| 2026-05-05 09:07 | 48.11478 | 16.57222 | 615 ft | 6 kts | 136° |
| 2026-05-05 09:07 | 48.11435 | 16.57207 | 618 ft | 7 kts | 203° |
| 2026-05-05 09:07 | 48.11408 | 16.57188 | 610 ft | 0 kts | 205° |